sensor_id;sensor_type;location;lat;lon;timestamp;temperature;humidity
56103;DHT22;41970;48.774;9.280;2023-03-23T00:02:26;13.00;97.00
56103;DHT22;41970;48.774;9.280;2023-03-23T00:04:52;13.00;97.70
56103;DHT22;41970;48.774;9.280;2023-03-23T00:07:22;13.00;97.70
56103;DHT22;41970;48.774;9.280;2023-03-23T00:09:54;13.00;97.70
56103;DHT22;41970;48.774;9.280;2023-03-23T00:12:25;13.00;98.30
56103;DHT22;41970;48.774;9.280;2023-03-23T00:15:05;13.00;98.50
56103;DHT22;41970;48.774;9.280;2023-03-23T00:17:32;13.00;98.30
56103;DHT22;41970;48.774;9.280;2023-03-23T00:19:59;12.90;98.30
56103;DHT22;41970;48.774;9.280;2023-03-23T00:22:27;13.00;98.40
56103;DHT22;41970;48.774;9.280;2023-03-23T00:24:53;13.00;98.50
56103;DHT22;41970;48.774;9.280;2023-03-23T00:27:19;13.00;98.30
56103;DHT22;41970;48.774;9.280;2023-03-23T00:29:48;13.10;98.50
56103;DHT22;41970;48.774;9.280;2023-03-23T00:32:14;13.20;98.30
56103;DHT22;41970;48.774;9.280;2023-03-23T00:34:42;13.20;98.40
56103;DHT22;41970;48.774;9.280;2023-03-23T00:37:10;13.20;98.20
56103;DHT22;41970;48.774;9.280;2023-03-23T00:39:37;13.20;98.10
56103;DHT22;41970;48.774;9.280;2023-03-23T00:42:04;13.20;98.40
56103;DHT22;41970;48.774;9.280;2023-03-23T00:44:31;13.20;98.10
56103;DHT22;41970;48.774;9.280;2023-03-23T00:46:58;13.30;98.00
56103;DHT22;41970;48.774;9.280;2023-03-23T00:49:25;13.20;97.40
56103;DHT22;41970;48.774;9.280;2023-03-23T00:51:56;13.20;95.70
56103;DHT22;41970;48.774;9.280;2023-03-23T00:54:24;13.10;94.60
56103;DHT22;41970;48.774;9.280;2023-03-23T00:56:50;13.10;94.30
56103;DHT22;41970;48.774;9.280;2023-03-23T00:59:17;13.00;94.50
56103;DHT22;41970;48.774;9.280;2023-03-23T01:01:42;13.00;94.30
56103;DHT22;41970;48.774;9.280;2023-03-23T01:04:08;12.90;94.10
56103;DHT22;41970;48.774;9.280;2023-03-23T01:06:39;13.00;94.20
56103;DHT22;41970;48.774;9.280;2023-03-23T01:09:11;13.00;94.00
56103;DHT22;41970;48.774;9.280;2023-03-23T01:11:43;13.00;94.00
56103;DHT22;41970;48.774;9.280;2023-03-23T01:14:10;13.00;93.90
56103;DHT22;41970;48.774;9.280;2023-03-23T01:16:36;13.10;94.10
56103;DHT22;41970;48.774;9.280;2023-03-23T01:19:02;13.10;93.80
56103;DHT22;41970;48.774;9.280;2023-03-23T01:21:27;13.10;93.80
56103;DHT22;41970;48.774;9.280;2023-03-23T01:23:53;13.10;94.00
56103;DHT22;41970;48.774;9.280;2023-03-23T01:26:21;13.10;93.90
56103;DHT22;41970;48.774;9.280;2023-03-23T01:28:48;13.10;93.90
56103;DHT22;41970;48.774;9.280;2023-03-23T01:31:19;13.20;93.80
56103;DHT22;41970;48.774;9.280;2023-03-23T01:33:46;13.20;94.10
56103;DHT22;41970;48.774;9.280;2023-03-23T01:36:14;13.20;93.70
56103;DHT22;41970;48.774;9.280;2023-03-23T01:38:42;13.20;93.70
56103;DHT22;41970;48.774;9.280;2023-03-23T01:41:08;13.20;93.50
56103;DHT22;41970;48.774;9.280;2023-03-23T01:43:34;13.20;93.60
56103;DHT22;41970;48.774;9.280;2023-03-23T01:46:00;13.10;93.70
56103;DHT22;41970;48.774;9.280;2023-03-23T01:48:27;13.10;93.80
56103;DHT22;41970;48.774;9.280;2023-03-23T01:51:12;13.10;93.80
56103;DHT22;41970;48.774;9.280;2023-03-23T01:53:53;13.10;93.80
56103;DHT22;41970;48.774;9.280;2023-03-23T01:56:22;13.10;93.80
56103;DHT22;41970;48.774;9.280;2023-03-23T01:58:52;13.10;93.70
56103;DHT22;41970;48.774;9.280;2023-03-23T02:01:19;13.00;93.70
56103;DHT22;41970;48.774;9.280;2023-03-23T02:03:48;13.10;93.70
56103;DHT22;41970;48.774;9.280;2023-03-23T02:06:14;13.10;93.70
56103;DHT22;41970;48.774;9.280;2023-03-23T02:08:41;13.10;93.90
56103;DHT22;41970;48.774;9.280;2023-03-23T02:11:17;13.10;94.00
56103;DHT22;41970;48.774;9.280;2023-03-23T02:13:43;13.30;93.70
56103;DHT22;41970;48.774;9.280;2023-03-23T02:18:55;13.50;93.80
56103;DHT22;41970;48.774;9.280;2023-03-23T02:24:23;13.70;94.00
56103;DHT22;41970;48.774;9.280;2023-03-23T02:27:00;13.80;93.90
56103;DHT22;41970;48.774;9.280;2023-03-23T02:32:31;13.80;92.70
56103;DHT22;41970;48.774;9.280;2023-03-23T02:35:04;13.80;92.80
56103;DHT22;41970;48.774;9.280;2023-03-23T02:37:51;13.70;93.00
56103;DHT22;41970;48.774;9.280;2023-03-23T02:40:25;13.60;93.10
56103;DHT22;41970;48.774;9.280;2023-03-23T02:42:55;13.60;93.50
56103;DHT22;41970;48.774;9.280;2023-03-23T02:45:24;13.50;93.30
56103;DHT22;41970;48.774;9.280;2023-03-23T02:47:53;13.50;93.30
56103;DHT22;41970;48.774;9.280;2023-03-23T02:50:22;13.60;93.40
56103;DHT22;41970;48.774;9.280;2023-03-23T02:52:49;13.60;93.20
56103;DHT22;41970;48.774;9.280;2023-03-23T02:55:17;13.60;93.30
56103;DHT22;41970;48.774;9.280;2023-03-23T02:57:45;13.70;93.40
56103;DHT22;41970;48.774;9.280;2023-03-23T03:00:15;13.70;94.00
56103;DHT22;41970;48.774;9.280;2023-03-23T03:02:52;13.50;93.70
56103;DHT22;41970;48.774;9.280;2023-03-23T03:05:43;13.30;93.90
56103;DHT22;41970;48.774;9.280;2023-03-23T03:11:08;13.20;93.50
56103;DHT22;41970;48.774;9.280;2023-03-23T03:13:50;13.20;93.80
56103;DHT22;41970;48.774;9.280;2023-03-23T03:21:28;13.00;93.90
56103;DHT22;41970;48.774;9.280;2023-03-23T03:23:58;13.00;93.90
56103;DHT22;41970;48.774;9.280;2023-03-23T03:26:27;13.00;94.00
56103;DHT22;41970;48.774;9.280;2023-03-23T03:28:54;13.00;94.10
56103;DHT22;41970;48.774;9.280;2023-03-23T03:31:33;13.00;94.10
56103;DHT22;41970;48.774;9.280;2023-03-23T03:34:01;12.90;94.30
56103;DHT22;41970;48.774;9.280;2023-03-23T03:36:33;12.90;94.50
56103;DHT22;41970;48.774;9.280;2023-03-23T03:39:07;12.90;94.60
56103;DHT22;41970;48.774;9.280;2023-03-23T03:41:37;13.00;94.30
56103;DHT22;41970;48.774;9.280;2023-03-23T03:44:04;13.00;94.10
56103;DHT22;41970;48.774;9.280;2023-03-23T03:46:31;13.00;94.10
56103;DHT22;41970;48.774;9.280;2023-03-23T03:48:58;13.10;94.00
56103;DHT22;41970;48.774;9.280;2023-03-23T03:51:24;13.20;93.80
56103;DHT22;41970;48.774;9.280;2023-03-23T03:53:51;13.20;93.50
56103;DHT22;41970;48.774;9.280;2023-03-23T03:56:17;13.40;93.70
56103;DHT22;41970;48.774;9.280;2023-03-23T03:58:43;13.50;93.60
56103;DHT22;41970;48.774;9.280;2023-03-23T04:01:10;13.50;93.50
56103;DHT22;41970;48.774;9.280;2023-03-23T04:03:36;13.50;93.60
56103;DHT22;41970;48.774;9.280;2023-03-23T04:06:03;13.50;93.50
56103;DHT22;41970;48.774;9.280;2023-03-23T04:08:29;13.50;93.40
56103;DHT22;41970;48.774;9.280;2023-03-23T04:10:55;13.50;93.50
56103;DHT22;41970;48.774;9.280;2023-03-23T04:13:21;13.50;93.40
56103;DHT22;41970;48.774;9.280;2023-03-23T04:15:47;13.70;93.70
56103;DHT22;41970;48.774;9.280;2023-03-23T04:18:14;13.80;93.30
56103;DHT22;41970;48.774;9.280;2023-03-23T04:20:46;13.90;93.20
56103;DHT22;41970;48.774;9.280;2023-03-23T04:23:13;13.90;93.20
56103;DHT22;41970;48.774;9.280;2023-03-23T04:25:39;14.00;93.00
56103;DHT22;41970;48.774;9.280;2023-03-23T04:28:07;14.20;93.00
56103;DHT22;41970;48.774;9.280;2023-03-23T04:30:36;14.20;92.80
56103;DHT22;41970;48.774;9.280;2023-03-23T04:33:02;14.30;92.80
56103;DHT22;41970;48.774;9.280;2023-03-23T04:35:28;14.30;93.10
56103;DHT22;41970;48.774;9.280;2023-03-23T04:37:55;14.40;92.90
56103;DHT22;41970;48.774;9.280;2023-03-23T04:40:21;14.40;93.10
56103;DHT22;41970;48.774;9.280;2023-03-23T04:42:47;14.50;92.90
56103;DHT22;41970;48.774;9.280;2023-03-23T04:45:19;14.50;93.30
56103;DHT22;41970;48.774;9.280;2023-03-23T04:47:48;14.40;93.10
56103;DHT22;41970;48.774;9.280;2023-03-23T04:50:20;14.50;93.10
56103;DHT22;41970;48.774;9.280;2023-03-23T04:52:49;14.40;93.60
56103;DHT22;41970;48.774;9.280;2023-03-23T04:55:18;14.10;93.80
56103;DHT22;41970;48.774;9.280;2023-03-23T04:57:45;13.90;94.20
56103;DHT22;41970;48.774;9.280;2023-03-23T05:00:11;14.10;94.20
56103;DHT22;41970;48.774;9.280;2023-03-23T05:02:40;14.20;94.10
56103;DHT22;41970;48.774;9.280;2023-03-23T05:05:10;14.20;94.30
56103;DHT22;41970;48.774;9.280;2023-03-23T05:07:40;14.10;94.70
56103;DHT22;41970;48.774;9.280;2023-03-23T05:10:08;13.90;94.60
56103;DHT22;41970;48.774;9.280;2023-03-23T05:12:34;14.00;94.70
56103;DHT22;41970;48.774;9.280;2023-03-23T05:15:00;14.10;94.70
56103;DHT22;41970;48.774;9.280;2023-03-23T05:17:26;14.00;94.70
56103;DHT22;41970;48.774;9.280;2023-03-23T05:19:52;13.90;94.80
56103;DHT22;41970;48.774;9.280;2023-03-23T05:22:19;13.80;95.10
56103;DHT22;41970;48.774;9.280;2023-03-23T05:24:47;13.80;95.30
56103;DHT22;41970;48.774;9.280;2023-03-23T05:27:13;13.70;95.50
56103;DHT22;41970;48.774;9.280;2023-03-23T05:29:40;13.60;95.60
56103;DHT22;41970;48.774;9.280;2023-03-23T05:32:10;13.60;95.70
56103;DHT22;41970;48.774;9.280;2023-03-23T05:34:36;13.60;96.20
56103;DHT22;41970;48.774;9.280;2023-03-23T05:37:03;13.30;95.80
56103;DHT22;41970;48.774;9.280;2023-03-23T05:39:30;13.20;96.20
56103;DHT22;41970;48.774;9.280;2023-03-23T05:41:56;13.10;95.90
56103;DHT22;41970;48.774;9.280;2023-03-23T05:44:23;13.10;95.90
56103;DHT22;41970;48.774;9.280;2023-03-23T05:46:48;13.20;96.00
56103;DHT22;41970;48.774;9.280;2023-03-23T05:49:15;13.40;96.10
56103;DHT22;41970;48.774;9.280;2023-03-23T05:51:42;13.80;95.80
56103;DHT22;41970;48.774;9.280;2023-03-23T05:54:09;14.20;95.10
56103;DHT22;41970;48.774;9.280;2023-03-23T05:56:36;14.50;95.00
56103;DHT22;41970;48.774;9.280;2023-03-23T05:59:02;14.50;94.70
56103;DHT22;41970;48.774;9.280;2023-03-23T06:01:28;14.20;94.60
56103;DHT22;41970;48.774;9.280;2023-03-23T06:03:54;14.20;95.20
56103;DHT22;41970;48.774;9.280;2023-03-23T06:06:24;13.90;95.20
56103;DHT22;41970;48.774;9.280;2023-03-23T06:08:50;13.70;95.30
56103;DHT22;41970;48.774;9.280;2023-03-23T06:11:16;13.70;95.70
56103;DHT22;41970;48.774;9.280;2023-03-23T06:13:42;13.70;96.20
56103;DHT22;41970;48.774;9.280;2023-03-23T06:16:09;13.70;96.60
56103;DHT22;41970;48.774;9.280;2023-03-23T06:18:35;13.80;96.30
56103;DHT22;41970;48.774;9.280;2023-03-23T06:21:05;13.80;96.20
56103;DHT22;41970;48.774;9.280;2023-03-23T06:23:31;13.70;95.80
56103;DHT22;41970;48.774;9.280;2023-03-23T06:25:59;13.80;96.10
56103;DHT22;41970;48.774;9.280;2023-03-23T06:28:26;13.90;96.20
56103;DHT22;41970;48.774;9.280;2023-03-23T06:30:52;14.10;96.70
56103;DHT22;41970;48.774;9.280;2023-03-23T06:33:19;14.20;96.50
56103;DHT22;41970;48.774;9.280;2023-03-23T06:35:44;14.40;96.40
56103;DHT22;41970;48.774;9.280;2023-03-23T06:38:10;14.50;96.60
56103;DHT22;41970;48.774;9.280;2023-03-23T06:40:36;14.50;95.80
56103;DHT22;41970;48.774;9.280;2023-03-23T06:43:02;14.50;96.40
56103;DHT22;41970;48.774;9.280;2023-03-23T06:45:29;14.50;96.30
56103;DHT22;41970;48.774;9.280;2023-03-23T06:47:56;14.70;95.90
56103;DHT22;41970;48.774;9.280;2023-03-23T06:50:22;14.70;95.90
56103;DHT22;41970;48.774;9.280;2023-03-23T06:52:49;14.70;96.30
56103;DHT22;41970;48.774;9.280;2023-03-23T06:55:16;14.70;96.40
56103;DHT22;41970;48.774;9.280;2023-03-23T06:57:43;14.50;96.70
56103;DHT22;41970;48.774;9.280;2023-03-23T07:00:10;14.40;97.10
56103;DHT22;41970;48.774;9.280;2023-03-23T07:02:41;14.30;97.00
56103;DHT22;41970;48.774;9.280;2023-03-23T07:05:09;14.40;97.20
56103;DHT22;41970;48.774;9.280;2023-03-23T07:07:39;14.50;96.90
56103;DHT22;41970;48.774;9.280;2023-03-23T07:10:07;14.70;96.40
56103;DHT22;41970;48.774;9.280;2023-03-23T07:12:35;14.70;96.30
56103;DHT22;41970;48.774;9.280;2023-03-23T07:15:05;14.80;96.10
56103;DHT22;41970;48.774;9.280;2023-03-23T07:17:33;14.80;95.70
56103;DHT22;41970;48.774;9.280;2023-03-23T07:19:59;14.90;95.10
56103;DHT22;41970;48.774;9.280;2023-03-23T07:22:24;15.00;94.80
56103;DHT22;41970;48.774;9.280;2023-03-23T07:24:50;15.00;94.60
56103;DHT22;41970;48.774;9.280;2023-03-23T07:27:16;15.00;94.90
56103;DHT22;41970;48.774;9.280;2023-03-23T07:29:42;15.00;95.00
56103;DHT22;41970;48.774;9.280;2023-03-23T07:32:11;15.10;95.00
56103;DHT22;41970;48.774;9.280;2023-03-23T07:34:37;15.00;95.60
56103;DHT22;41970;48.774;9.280;2023-03-23T07:37:04;15.10;95.20
56103;DHT22;41970;48.774;9.280;2023-03-23T07:39:30;15.00;95.30
56103;DHT22;41970;48.774;9.280;2023-03-23T07:41:57;15.00;95.20
56103;DHT22;41970;48.774;9.280;2023-03-23T07:44:23;15.10;95.20
56103;DHT22;41970;48.774;9.280;2023-03-23T07:46:49;15.10;95.30
56103;DHT22;41970;48.774;9.280;2023-03-23T07:49:15;15.10;94.80
56103;DHT22;41970;48.774;9.280;2023-03-23T07:51:41;15.10;95.20
56103;DHT22;41970;48.774;9.280;2023-03-23T07:54:07;15.20;94.70
56103;DHT22;41970;48.774;9.280;2023-03-23T07:56:34;15.30;94.30
56103;DHT22;41970;48.774;9.280;2023-03-23T07:59:01;15.20;94.70
56103;DHT22;41970;48.774;9.280;2023-03-23T08:01:28;15.20;94.60
56103;DHT22;41970;48.774;9.280;2023-03-23T08:03:54;15.20;94.50
56103;DHT22;41970;48.774;9.280;2023-03-23T08:06:26;15.30;94.20
56103;DHT22;41970;48.774;9.280;2023-03-23T08:08:52;15.40;93.60
56103;DHT22;41970;48.774;9.280;2023-03-23T08:11:19;15.50;93.50
56103;DHT22;41970;48.774;9.280;2023-03-23T08:13:46;15.60;93.00
56103;DHT22;41970;48.774;9.280;2023-03-23T08:16:12;15.70;92.90
56103;DHT22;41970;48.774;9.280;2023-03-23T08:18:39;15.80;92.90
56103;DHT22;41970;48.774;9.280;2023-03-23T08:21:06;15.70;93.10
56103;DHT22;41970;48.774;9.280;2023-03-23T08:23:34;15.80;93.00
56103;DHT22;41970;48.774;9.280;2023-03-23T08:26:00;15.80;92.90
56103;DHT22;41970;48.774;9.280;2023-03-23T08:28:26;15.80;93.30
56103;DHT22;41970;48.774;9.280;2023-03-23T08:30:52;15.90;93.00
56103;DHT22;41970;48.774;9.280;2023-03-23T08:33:18;15.90;93.20
56103;DHT22;41970;48.774;9.280;2023-03-23T08:35:44;15.90;93.10
56103;DHT22;41970;48.774;9.280;2023-03-23T08:38:11;15.90;93.40
56103;DHT22;41970;48.774;9.280;2023-03-23T08:40:37;16.00;93.50
56103;DHT22;41970;48.774;9.280;2023-03-23T08:43:04;16.00;93.40
56103;DHT22;41970;48.774;9.280;2023-03-23T08:45:30;16.00;93.60
56103;DHT22;41970;48.774;9.280;2023-03-23T08:47:55;16.10;93.40
56103;DHT22;41970;48.774;9.280;2023-03-23T08:50:27;16.10;93.70
56103;DHT22;41970;48.774;9.280;2023-03-23T08:52:53;16.20;93.50
56103;DHT22;41970;48.774;9.280;2023-03-23T08:55:21;16.20;93.70
56103;DHT22;41970;48.774;9.280;2023-03-23T08:57:47;16.20;93.70
56103;DHT22;41970;48.774;9.280;2023-03-23T09:00:18;16.20;93.50
56103;DHT22;41970;48.774;9.280;2023-03-23T09:02:50;16.10;94.00
56103;DHT22;41970;48.774;9.280;2023-03-23T09:05:18;16.10;94.00
56103;DHT22;41970;48.774;9.280;2023-03-23T09:07:48;16.10;94.00
56103;DHT22;41970;48.774;9.280;2023-03-23T09:10:15;16.10;93.90
56103;DHT22;41970;48.774;9.280;2023-03-23T09:12:42;16.20;94.20
56103;DHT22;41970;48.774;9.280;2023-03-23T09:15:10;16.30;94.00
56103;DHT22;41970;48.774;9.280;2023-03-23T09:17:39;16.40;94.30
56103;DHT22;41970;48.774;9.280;2023-03-23T09:20:07;16.40;94.10
56103;DHT22;41970;48.774;9.280;2023-03-23T09:22:42;16.40;94.40
56103;DHT22;41970;48.774;9.280;2023-03-23T09:25:11;16.30;94.20
56103;DHT22;41970;48.774;9.280;2023-03-23T09:27:38;16.30;93.90
56103;DHT22;41970;48.774;9.280;2023-03-23T09:30:11;16.40;93.90
56103;DHT22;41970;48.774;9.280;2023-03-23T09:32:38;16.40;94.10
56103;DHT22;41970;48.774;9.280;2023-03-23T09:35:07;16.60;94.20
56103;DHT22;41970;48.774;9.280;2023-03-23T09:37:39;16.80;93.80
56103;DHT22;41970;48.774;9.280;2023-03-23T09:40:09;16.80;94.00
56103;DHT22;41970;48.774;9.280;2023-03-23T09:43:02;16.80;94.00
56103;DHT22;41970;48.774;9.280;2023-03-23T09:50:52;16.70;94.00
56103;DHT22;41970;48.774;9.280;2023-03-23T09:53:27;16.60;94.00
56103;DHT22;41970;48.774;9.280;2023-03-23T09:55:56;16.60;94.20
56103;DHT22;41970;48.774;9.280;2023-03-23T09:58:37;16.50;94.10
56103;DHT22;41970;48.774;9.280;2023-03-23T10:01:21;16.50;94.40
56103;DHT22;41970;48.774;9.280;2023-03-23T10:03:49;16.60;93.90
56103;DHT22;41970;48.774;9.280;2023-03-23T10:06:18;16.60;93.50
56103;DHT22;41970;48.774;9.280;2023-03-23T10:08:50;16.70;93.70
56103;DHT22;41970;48.774;9.280;2023-03-23T10:11:29;16.70;93.60
56103;DHT22;41970;48.774;9.280;2023-03-23T10:14:16;16.70;93.90
56103;DHT22;41970;48.774;9.280;2023-03-23T10:21:52;16.60;94.00
56103;DHT22;41970;48.774;9.280;2023-03-23T10:24:23;16.60;94.00
56103;DHT22;41970;48.774;9.280;2023-03-23T10:29:52;16.60;94.40
56103;DHT22;41970;48.774;9.280;2023-03-23T10:32:39;16.70;94.30
56103;DHT22;41970;48.774;9.280;2023-03-23T10:35:11;16.80;94.10
56103;DHT22;41970;48.774;9.280;2023-03-23T10:37:45;16.90;93.60
56103;DHT22;41970;48.774;9.280;2023-03-23T10:40:19;16.80;94.10
56103;DHT22;41970;48.774;9.280;2023-03-23T10:42:46;16.80;93.80
56103;DHT22;41970;48.774;9.280;2023-03-23T10:47:50;16.90;94.30
56103;DHT22;41970;48.774;9.280;2023-03-23T10:50:22;16.90;94.40
56103;DHT22;41970;48.774;9.280;2023-03-23T10:52:50;16.80;94.40
56103;DHT22;41970;48.774;9.280;2023-03-23T10:55:21;16.80;94.70
56103;DHT22;41970;48.774;9.280;2023-03-23T10:58:09;16.80;94.70
56103;DHT22;41970;48.774;9.280;2023-03-23T11:00:46;16.80;94.80
56103;DHT22;41970;48.774;9.280;2023-03-23T11:05:48;16.90;94.90
56103;DHT22;41970;48.774;9.280;2023-03-23T11:08:34;16.90;95.00
56103;DHT22;41970;48.774;9.280;2023-03-23T11:11:19;16.90;94.80
56103;DHT22;41970;48.774;9.280;2023-03-23T11:13:48;17.10;94.80
56103;DHT22;41970;48.774;9.280;2023-03-23T11:16:30;17.00;94.80
56103;DHT22;41970;48.774;9.280;2023-03-23T11:18:58;17.10;94.40
56103;DHT22;41970;48.774;9.280;2023-03-23T11:21:25;17.20;95.30
56103;DHT22;41970;48.774;9.280;2023-03-23T11:23:58;17.20;94.40
56103;DHT22;41970;48.774;9.280;2023-03-23T11:26:30;17.30;94.20
56103;DHT22;41970;48.774;9.280;2023-03-23T11:31:43;17.30;93.90
56103;DHT22;41970;48.774;9.280;2023-03-23T11:34:43;17.30;94.10
56103;DHT22;41970;48.774;9.280;2023-03-23T11:37:16;17.40;94.70
56103;DHT22;41970;48.774;9.280;2023-03-23T11:39:48;17.40;94.80
56103;DHT22;41970;48.774;9.280;2023-03-23T11:45:18;17.30;94.80
56103;DHT22;41970;48.774;9.280;2023-03-23T11:48:11;17.30;94.90
56103;DHT22;41970;48.774;9.280;2023-03-23T11:51:06;17.30;95.00
56103;DHT22;41970;48.774;9.280;2023-03-23T11:53:49;17.30;94.70
56103;DHT22;41970;48.774;9.280;2023-03-23T11:56:37;17.40;94.60
56103;DHT22;41970;48.774;9.280;2023-03-23T11:59:13;17.60;94.60
56103;DHT22;41970;48.774;9.280;2023-03-23T12:02:19;17.70;94.40
56103;DHT22;41970;48.774;9.280;2023-03-23T12:07:46;18.00;94.10
56103;DHT22;41970;48.774;9.280;2023-03-23T12:13:39;18.10;93.40
56103;DHT22;41970;48.774;9.280;2023-03-23T12:19:25;18.00;94.10
56103;DHT22;41970;48.774;9.280;2023-03-23T12:25:16;18.10;94.30
56103;DHT22;41970;48.774;9.280;2023-03-23T12:30:53;18.00;93.70
56103;DHT22;41970;48.774;9.280;2023-03-23T12:44:38;19.00;92.30
56103;DHT22;41970;48.774;9.280;2023-03-23T12:50:31;18.90;91.00
56103;DHT22;41970;48.774;9.280;2023-03-23T12:53:11;18.80;90.90
56103;DHT22;41970;48.774;9.280;2023-03-23T12:55:48;18.50;91.80
56103;DHT22;41970;48.774;9.280;2023-03-23T12:58:26;18.40;92.00
56103;DHT22;41970;48.774;9.280;2023-03-23T13:01:00;18.40;91.70
56103;DHT22;41970;48.774;9.280;2023-03-23T13:04:17;18.40;91.50
56103;DHT22;41970;48.774;9.280;2023-03-23T13:06:46;18.40;92.00
56103;DHT22;41970;48.774;9.280;2023-03-23T13:11:55;18.50;91.70
56103;DHT22;41970;48.774;9.280;2023-03-23T13:14:43;18.50;91.70
56103;DHT22;41970;48.774;9.280;2023-03-23T13:25:45;18.50;91.30
56103;DHT22;41970;48.774;9.280;2023-03-23T13:28:21;18.50;91.30
56103;DHT22;41970;48.774;9.280;2023-03-23T13:31:02;18.50;91.40
56103;DHT22;41970;48.774;9.280;2023-03-23T13:33:34;18.50;91.20
56103;DHT22;41970;48.774;9.280;2023-03-23T13:36:10;18.60;91.20
56103;DHT22;41970;48.774;9.280;2023-03-23T13:38:36;18.70;91.20
56103;DHT22;41970;48.774;9.280;2023-03-23T13:41:08;18.70;91.00
56103;DHT22;41970;48.774;9.280;2023-03-23T13:43:37;18.60;91.40
56103;DHT22;41970;48.774;9.280;2023-03-23T13:49:01;18.30;91.70
56103;DHT22;41970;48.774;9.280;2023-03-23T13:51:32;18.30;91.40
56103;DHT22;41970;48.774;9.280;2023-03-23T13:56:55;18.50;90.90
56103;DHT22;41970;48.774;9.280;2023-03-23T14:01:53;18.50;91.00
56103;DHT22;41970;48.774;9.280;2023-03-23T14:04:21;18.60;91.10
56103;DHT22;41970;48.774;9.280;2023-03-23T14:06:49;18.70;90.60
56103;DHT22;41970;48.774;9.280;2023-03-23T14:09:22;18.80;90.50
56103;DHT22;41970;48.774;9.280;2023-03-23T14:12:19;18.80;90.20
56103;DHT22;41970;48.774;9.280;2023-03-23T14:14:55;18.80;90.30
56103;DHT22;41970;48.774;9.280;2023-03-23T14:17:41;18.60;90.50
56103;DHT22;41970;48.774;9.280;2023-03-23T14:20:32;18.40;90.50
56103;DHT22;41970;48.774;9.280;2023-03-23T14:22:59;18.40;90.40
56103;DHT22;41970;48.774;9.280;2023-03-23T14:25:32;18.20;90.60
56103;DHT22;41970;48.774;9.280;2023-03-23T14:27:58;18.20;90.80
56103;DHT22;41970;48.774;9.280;2023-03-23T14:30:35;18.20;90.50
56103;DHT22;41970;48.774;9.280;2023-03-23T14:33:06;18.30;90.70
56103;DHT22;41970;48.774;9.280;2023-03-23T14:35:36;18.30;90.50
56103;DHT22;41970;48.774;9.280;2023-03-23T14:38:04;18.20;90.40
56103;DHT22;41970;48.774;9.280;2023-03-23T14:40:31;18.10;89.80
56103;DHT22;41970;48.774;9.280;2023-03-23T14:42:57;18.10;89.40
56103;DHT22;41970;48.774;9.280;2023-03-23T14:45:24;18.20;89.00
56103;DHT22;41970;48.774;9.280;2023-03-23T14:48:00;18.10;90.00
56103;DHT22;41970;48.774;9.280;2023-03-23T14:50:35;18.00;89.00
56103;DHT22;41970;48.774;9.280;2023-03-23T14:53:21;18.00;89.60
56103;DHT22;41970;48.774;9.280;2023-03-23T14:55:49;17.90;89.50
56103;DHT22;41970;48.774;9.280;2023-03-23T14:58:17;18.00;89.30
56103;DHT22;41970;48.774;9.280;2023-03-23T15:03:17;18.10;89.50
56103;DHT22;41970;48.774;9.280;2023-03-23T15:05:55;18.20;89.90
56103;DHT22;41970;48.774;9.280;2023-03-23T15:08:26;18.20;88.50
56103;DHT22;41970;48.774;9.280;2023-03-23T15:11:29;18.30;88.20
56103;DHT22;41970;48.774;9.280;2023-03-23T15:13:56;18.30;88.20
56103;DHT22;41970;48.774;9.280;2023-03-23T15:16:31;18.20;87.70
56103;DHT22;41970;48.774;9.280;2023-03-23T15:19:04;18.20;87.10
56103;DHT22;41970;48.774;9.280;2023-03-23T15:21:35;18.20;87.60
56103;DHT22;41970;48.774;9.280;2023-03-23T15:24:17;18.10;86.90
56103;DHT22;41970;48.774;9.280;2023-03-23T15:26:45;18.10;86.70
56103;DHT22;41970;48.774;9.280;2023-03-23T15:29:18;18.10;86.70
56103;DHT22;41970;48.774;9.280;2023-03-23T15:31:49;18.10;86.70
56103;DHT22;41970;48.774;9.280;2023-03-23T15:34:36;18.20;86.60
56103;DHT22;41970;48.774;9.280;2023-03-23T15:37:13;18.20;85.60
56103;DHT22;41970;48.774;9.280;2023-03-23T15:39:41;18.20;85.80
56103;DHT22;41970;48.774;9.280;2023-03-23T15:44:56;18.20;86.00
56103;DHT22;41970;48.774;9.280;2023-03-23T15:47:22;18.10;86.20
56103;DHT22;41970;48.774;9.280;2023-03-23T15:50:47;18.00;86.50
56103;DHT22;41970;48.774;9.280;2023-03-23T15:52:48;18.10;86.40
56103;DHT22;41970;48.774;9.280;2023-03-23T15:55:34;18.10;87.10
56103;DHT22;41970;48.774;9.280;2023-03-23T15:58:01;18.10;86.80
56103;DHT22;41970;48.774;9.280;2023-03-23T16:00:31;18.10;87.30
56103;DHT22;41970;48.774;9.280;2023-03-23T16:03:01;18.10;87.00
56103;DHT22;41970;48.774;9.280;2023-03-23T16:05:28;18.00;87.70
56103;DHT22;41970;48.774;9.280;2023-03-23T16:07:55;18.00;87.30
56103;DHT22;41970;48.774;9.280;2023-03-23T16:10:23;17.90;87.10
56103;DHT22;41970;48.774;9.280;2023-03-23T16:12:49;17.90;86.80
56103;DHT22;41970;48.774;9.280;2023-03-23T16:15:16;17.90;86.50
56103;DHT22;41970;48.774;9.280;2023-03-23T16:17:42;17.90;86.60
56103;DHT22;41970;48.774;9.280;2023-03-23T16:20:14;17.90;87.00
56103;DHT22;41970;48.774;9.280;2023-03-23T16:22:40;17.80;87.00
56103;DHT22;41970;48.774;9.280;2023-03-23T16:25:07;17.80;86.90
56103;DHT22;41970;48.774;9.280;2023-03-23T16:27:33;17.80;87.00
56103;DHT22;41970;48.774;9.280;2023-03-23T16:29:59;17.80;86.40
56103;DHT22;41970;48.774;9.280;2023-03-23T16:32:27;17.80;86.80
56103;DHT22;41970;48.774;9.280;2023-03-23T16:34:53;17.70;86.90
56103;DHT22;41970;48.774;9.280;2023-03-23T16:37:19;17.70;86.70
56103;DHT22;41970;48.774;9.280;2023-03-23T16:39:46;17.60;87.10
56103;DHT22;41970;48.774;9.280;2023-03-23T16:42:12;17.60;87.20
56103;DHT22;41970;48.774;9.280;2023-03-23T16:44:38;17.60;87.40
56103;DHT22;41970;48.774;9.280;2023-03-23T16:47:03;17.60;87.70
56103;DHT22;41970;48.774;9.280;2023-03-23T16:49:29;17.50;87.80
56103;DHT22;41970;48.774;9.280;2023-03-23T16:51:56;17.40;88.40
56103;DHT22;41970;48.774;9.280;2023-03-23T16:54:23;17.50;88.10
56103;DHT22;41970;48.774;9.280;2023-03-23T16:56:48;17.50;88.60
56103;DHT22;41970;48.774;9.280;2023-03-23T16:59:14;17.50;88.90
56103;DHT22;41970;48.774;9.280;2023-03-23T17:01:40;17.50;89.00
56103;DHT22;41970;48.774;9.280;2023-03-23T17:04:07;17.60;89.30
56103;DHT22;41970;48.774;9.280;2023-03-23T17:06:34;17.60;89.10
56103;DHT22;41970;48.774;9.280;2023-03-23T17:09:00;17.50;88.90
56103;DHT22;41970;48.774;9.280;2023-03-23T17:11:26;17.60;89.10
56103;DHT22;41970;48.774;9.280;2023-03-23T17:13:52;17.60;89.00
56103;DHT22;41970;48.774;9.280;2023-03-23T17:16:17;17.60;88.80
56103;DHT22;41970;48.774;9.280;2023-03-23T17:18:43;17.60;89.00
56103;DHT22;41970;48.774;9.280;2023-03-23T17:21:09;17.60;88.90
56103;DHT22;41970;48.774;9.280;2023-03-23T17:23:35;17.60;89.10
56103;DHT22;41970;48.774;9.280;2023-03-23T17:26:00;17.50;89.00